sensor_id;sensor_type;location;lat;lon;timestamp;pressure;altitude;pressure_sealevel;temperature;humidity
18819;BME280;9537;45.594;9.294;2023-05-20T00:00:10;99786.88;;;15.22;99.79
18819;BME280;9537;45.594;9.294;2023-05-20T00:01:12;99787.88;;;15.21;99.75
18819;BME280;9537;45.594;9.294;2023-05-20T00:02:15;99787.88;;;15.21;100.00
18819;BME280;9537;45.594;9.294;2023-05-20T00:03:17;99783.97;;;15.17;100.00
18819;BME280;9537;45.594;9.294;2023-05-20T00:04:19;99790.50;;;15.15;100.00
18819;BME280;9537;45.594;9.294;2023-05-20T00:05:21;99786.63;;;15.17;100.00
18819;BME280;9537;45.594;9.294;2023-05-20T00:06:23;99782.13;;;15.18;99.97
18819;BME280;9537;45.594;9.294;2023-05-20T00:07:25;99786.41;;;15.19;99.86
18819;BME280;9537;45.594;9.294;2023-05-20T00:08:26;99781.31;;;15.17;100.00
18819;BME280;9537;45.594;9.294;2023-05-20T00:09:28;99780.28;;;15.18;100.00
18819;BME280;9537;45.594;9.294;2023-05-20T00:10:29;99776.59;;;15.19;99.79
18819;BME280;9537;45.594;9.294;2023-05-20T00:11:31;99772.13;;;15.20;100.00
18819;BME280;9537;45.594;9.294;2023-05-20T00:12:32;99775.78;;;15.19;99.76
18819;BME280;9537;45.594;9.294;2023-05-20T00:13:35;99782.31;;;15.16;100.00
18819;BME280;9537;45.594;9.294;2023-05-20T00:14:36;99775.38;;;15.15;100.00
18819;BME280;9537;45.594;9.294;2023-05-20T00:15:38;99771.06;;;15.14;100.00
18819;BME280;9537;45.594;9.294;2023-05-20T00:16:40;99780.50;;;15.17;100.00
18819;BME280;9537;45.594;9.294;2023-05-20T00:17:44;99774.97;;;15.18;100.00
18819;BME280;9537;45.594;9.294;2023-05-20T00:18:45;99771.69;;;15.16;99.99
18819;BME280;9537;45.594;9.294;2023-05-20T00:19:47;99780.69;;;15.15;100.00
18819;BME280;9537;45.594;9.294;2023-05-20T00:20:49;99780.06;;;15.13;100.00
18819;BME280;9537;45.594;9.294;2023-05-20T00:21:51;99774.94;;;15.12;100.00
18819;BME280;9537;45.594;9.294;2023-05-20T00:22:52;99774.94;;;15.12;100.00
18819;BME280;9537;45.594;9.294;2023-05-20T00:23:54;99776.59;;;15.13;100.00
18819;BME280;9537;45.594;9.294;2023-05-20T00:24:56;99773.09;;;15.12;100.00
18819;BME280;9537;45.594;9.294;2023-05-20T00:25:58;99772.69;;;15.08;100.00
18819;BME280;9537;45.594;9.294;2023-05-20T00:26:59;99772.28;;;15.12;100.00
18819;BME280;9537;45.594;9.294;2023-05-20T00:28:02;99778.81;;;15.09;100.00
18819;BME280;9537;45.594;9.294;2023-05-20T00:29:03;99779.84;;;15.08;100.00
18819;BME280;9537;45.594;9.294;2023-05-20T00:30:06;99781.66;;;15.07;100.00
18819;BME280;9537;45.594;9.294;2023-05-20T00:31:07;99776.97;;;15.09;100.00
18819;BME280;9537;45.594;9.294;2023-05-20T00:32:09;99776.59;;;15.13;100.00
18819;BME280;9537;45.594;9.294;2023-05-20T00:33:11;99778.22;;;15.14;100.00
18819;BME280;9537;45.594;9.294;2023-05-20T00:34:13;99776.78;;;15.11;100.00
18819;BME280;9537;45.594;9.294;2023-05-20T00:35:15;99769.41;;;15.13;100.00
18819;BME280;9537;45.594;9.294;2023-05-20T00:36:17;99761.88;;;15.17;99.34
18819;BME280;9537;45.594;9.294;2023-05-20T00:37:18;99765.53;;;15.16;99.28
18819;BME280;9537;45.594;9.294;2023-05-20T00:38:20;99768.81;;;15.18;99.05
18819;BME280;9537;45.594;9.294;2023-05-20T00:39:21;99768.00;;;15.17;99.15
18819;BME280;9537;45.594;9.294;2023-05-20T00:40:23;99766.34;;;15.16;99.46
18819;BME280;9537;45.594;9.294;2023-05-20T00:41:24;99759.00;;;15.18;99.22
18819;BME280;9537;45.594;9.294;2023-05-20T00:42:27;99764.13;;;15.20;98.63
18819;BME280;9537;45.594;9.294;2023-05-20T00:43:28;99761.47;;;15.20;98.47
18819;BME280;9537;45.594;9.294;2023-05-20T00:44:30;99750.38;;;15.16;99.32
18819;BME280;9537;45.594;9.294;2023-05-20T00:45:32;99754.91;;;15.16;99.04
18819;BME280;9537;45.594;9.294;2023-05-20T00:46:34;99754.47;;;15.12;99.30
18819;BME280;9537;45.594;9.294;2023-05-20T00:47:35;99756.50;;;15.10;99.73
18819;BME280;9537;45.594;9.294;2023-05-20T00:48:41;99756.13;;;15.13;99.32
18819;BME280;9537;45.594;9.294;2023-05-20T00:49:44;99748.53;;;15.10;99.45
18819;BME280;9537;45.594;9.294;2023-05-20T00:50:45;99754.88;;;15.09;99.83
18819;BME280;9537;45.594;9.294;2023-05-20T00:51:48;99759.38;;;15.08;99.61
18819;BME280;9537;45.594;9.294;2023-05-20T00:52:49;99756.13;;;15.13;99.35
18819;BME280;9537;45.594;9.294;2023-05-20T00:53:52;99762.47;;;15.12;99.08
18819;BME280;9537;45.594;9.294;2023-05-20T00:54:53;99758.19;;;15.11;99.15
18819;BME280;9537;45.594;9.294;2023-05-20T00:55:55;99751.59;;;15.14;99.04
18819;BME280;9537;45.594;9.294;2023-05-20T00:56:57;99759.38;;;15.08;99.19
18819;BME280;9537;45.594;9.294;2023-05-20T00:57:59;99762.88;;;15.09;99.69
18819;BME280;9537;45.594;9.294;2023-05-20T00:59:01;99755.91;;;15.08;99.53
18819;BME280;9537;45.594;9.294;2023-05-20T01:00:04;99747.94;;;15.08;99.62
18819;BME280;9537;45.594;9.294;2023-05-20T01:01:07;99763.25;;;15.06;99.86
18819;BME280;9537;45.594;9.294;2023-05-20T01:02:10;99756.28;;;15.05;99.88
18819;BME280;9537;45.594;9.294;2023-05-20T01:03:11;99752.00;;;15.04;100.00
18819;BME280;9537;45.594;9.294;2023-05-20T01:04:15;99756.72;;;15.08;99.77
18819;BME280;9537;45.594;9.294;2023-05-20T01:05:16;99762.47;;;15.12;99.41
18819;BME280;9537;45.594;9.294;2023-05-20T01:06:18;99761.03;;;15.09;99.81
18819;BME280;9537;45.594;9.294;2023-05-20T01:07:19;99754.88;;;15.09;100.00
18819;BME280;9537;45.594;9.294;2023-05-20T01:08:21;99758.75;;;15.06;100.00
18819;BME280;9537;45.594;9.294;2023-05-20T01:09:23;99759.56;;;15.07;100.00
18819;BME280;9537;45.594;9.294;2023-05-20T01:10:26;99754.66;;;15.04;100.00
18819;BME280;9537;45.594;9.294;2023-05-20T01:11:33;99761.81;;;15.03;100.00
18819;BME280;9537;45.594;9.294;2023-05-20T01:12:41;99761.00;;;15.03;100.00
18819;BME280;9537;45.594;9.294;2023-05-20T01:13:45;99764.66;;;15.02;100.00
18819;BME280;9537;45.594;9.294;2023-05-20T01:14:49;99763.03;;;15.01;100.00
18819;BME280;9537;45.594;9.294;2023-05-20T01:15:53;99761.41;;;15.00;100.00
18819;BME280;9537;45.594;9.294;2023-05-20T01:16:57;99760.56;;;14.99;100.00
18819;BME280;9537;45.594;9.294;2023-05-20T01:18:02;99759.75;;;14.99;100.00
18819;BME280;9537;45.594;9.294;2023-05-20T01:19:16;99757.72;;;15.01;100.00
18819;BME280;9537;45.594;9.294;2023-05-20T01:20:23;99758.53;;;15.01;100.00
18819;BME280;9537;45.594;9.294;2023-05-20T01:21:29;99752.41;;;15.01;100.00
18819;BME280;9537;45.594;9.294;2023-05-20T01:22:31;99754.25;;;15.00;100.00
18819;BME280;9537;45.594;9.294;2023-05-20T01:23:37;99748.09;;;15.00;100.00
18819;BME280;9537;45.594;9.294;2023-05-20T01:24:40;99756.09;;;15.00;100.00
18819;BME280;9537;45.594;9.294;2023-05-20T01:25:42;99751.59;;;15.00;100.00
18819;BME280;9537;45.594;9.294;2023-05-20T01:26:44;99749.91;;;14.99;100.00
18819;BME280;9537;45.594;9.294;2023-05-20T01:27:48;99745.44;;;15.00;100.00
18819;BME280;9537;45.594;9.294;2023-05-20T01:28:49;99751.38;;;15.02;100.00
18819;BME280;9537;45.594;9.294;2023-05-20T01:29:52;99756.69;;;15.02;100.00
18819;BME280;9537;45.594;9.294;2023-05-20T01:30:55;99743.78;;;14.99;100.00
18819;BME280;9537;45.594;9.294;2023-05-20T01:32:05;99748.72;;;15.02;100.00
18819;BME280;9537;45.594;9.294;2023-05-20T01:33:10;99745.44;;;15.00;100.00
18819;BME280;9537;45.594;9.294;2023-05-20T01:34:12;99742.56;;;15.01;100.00
18819;BME280;9537;45.594;9.294;2023-05-20T01:35:14;99733.59;;;15.02;100.00
18819;BME280;9537;45.594;9.294;2023-05-20T01:36:17;99731.13;;;15.01;100.00
18819;BME280;9537;45.594;9.294;2023-05-20T01:37:20;99736.22;;;14.96;100.00
18819;BME280;9537;45.594;9.294;2023-05-20T01:38:26;99725.56;;;14.96;100.00
18819;BME280;9537;45.594;9.294;2023-05-20T01:39:29;99731.91;;;14.95;100.00
18819;BME280;9537;45.594;9.294;2023-05-20T01:40:32;99737.88;;;14.97;100.00
18819;BME280;9537;45.594;9.294;2023-05-20T01:41:36;99725.56;;;14.96;100.00
18819;BME280;9537;45.594;9.294;2023-05-20T01:42:39;99733.56;;;14.96;100.00
18819;BME280;9537;45.594;9.294;2023-05-20T01:43:41;99734.59;;;14.95;100.00
18819;BME280;9537;45.594;9.294;2023-05-20T01:44:44;99730.50;;;14.99;100.00
18819;BME280;9537;45.594;9.294;2023-05-20T01:45:45;99731.31;;;14.99;100.00
18819;BME280;9537;45.594;9.294;2023-05-20T01:46:48;99728.03;;;14.97;100.00
18819;BME280;9537;45.594;9.294;2023-05-20T01:47:49;99729.50;;;15.00;100.00
18819;BME280;9537;45.594;9.294;2023-05-20T01:48:51;99727.66;;;15.00;100.00
18819;BME280;9537;45.594;9.294;2023-05-20T01:49:52;99722.50;;;14.99;99.78
18819;BME280;9537;45.594;9.294;2023-05-20T01:50:55;99722.72;;;14.97;100.00
18819;BME280;9537;45.594;9.294;2023-05-20T01:51:56;99726.38;;;14.96;99.97
18819;BME280;9537;45.594;9.294;2023-05-20T01:52:58;99718.41;;;14.96;99.80
18819;BME280;9537;45.594;9.294;2023-05-20T01:54:01;99721.28;;;14.95;99.90
18819;BME280;9537;45.594;9.294;2023-05-20T01:55:06;99721.28;;;14.95;100.00
18819;BME280;9537;45.594;9.294;2023-05-20T01:56:07;99715.97;;;14.95;100.00
18819;BME280;9537;45.594;9.294;2023-05-20T01:57:09;99725.56;;;14.96;100.00
18819;BME280;9537;45.594;9.294;2023-05-20T01:58:10;99715.16;;;14.94;100.00
18819;BME280;9537;45.594;9.294;2023-05-20T01:59:12;99720.88;;;14.91;100.00
18819;BME280;9537;45.594;9.294;2023-05-20T02:00:14;99715.34;;;14.93;100.00
18819;BME280;9537;45.594;9.294;2023-05-20T02:01:16;99715.34;;;14.93;100.00
18819;BME280;9537;45.594;9.294;2023-05-20T02:02:17;99718.63;;;14.95;100.00
18819;BME280;9537;45.594;9.294;2023-05-20T02:03:19;99712.69;;;14.99;99.78
18819;BME280;9537;45.594;9.294;2023-05-20T02:04:20;99712.50;;;15.01;98.73
18819;BME280;9537;45.594;9.294;2023-05-20T02:05:22;99709.84;;;15.01;98.85
18819;BME280;9537;45.594;9.294;2023-05-20T02:06:23;99714.53;;;14.99;98.74
18819;BME280;9537;45.594;9.294;2023-05-20T02:07:26;99708.63;;;14.97;98.95
18819;BME280;9537;45.594;9.294;2023-05-20T02:08:27;99708.81;;;14.95;99.26
18819;BME280;9537;45.594;9.294;2023-05-20T02:09:30;99705.75;;;14.98;98.98
18819;BME280;9537;45.594;9.294;2023-05-20T02:10:31;99705.09;;;14.96;99.08
18819;BME280;9537;45.594;9.294;2023-05-20T02:11:33;99702.44;;;14.96;99.54
18819;BME280;9537;45.594;9.294;2023-05-20T02:12:35;99701.63;;;14.96;99.84
18819;BME280;9537;45.594;9.294;2023-05-20T02:13:38;99700.00;;;14.95;99.76
18819;BME280;9537;45.594;9.294;2023-05-20T02:14:39;99696.31;;;14.96;99.92
18819;BME280;9537;45.594;9.294;2023-05-20T02:15:41;99703.47;;;14.95;99.82
18819;BME280;9537;45.594;9.294;2023-05-20T02:16:42;99706.16;;;14.95;99.98
18819;BME280;9537;45.594;9.294;2023-05-20T02:17:45;99700.81;;;14.95;100.00
18819;BME280;9537;45.594;9.294;2023-05-20T02:18:46;99703.47;;;14.95;99.93
18819;BME280;9537;45.594;9.294;2023-05-20T02:19:48;99703.69;;;14.94;100.00
18819;BME280;9537;45.594;9.294;2023-05-20T02:20:49;99707.97;;;14.95;100.00
18819;BME280;9537;45.594;9.294;2023-05-20T02:21:51;99701.03;;;14.94;100.00
18819;BME280;9537;45.594;9.294;2023-05-20T02:22:52;99701.84;;;14.94;100.00
18819;BME280;9537;45.594;9.294;2023-05-20T02:23:54;99698.38;;;14.94;100.00
18819;BME280;9537;45.594;9.294;2023-05-20T02:24:57;99702.66;;;14.95;100.00
18819;BME280;9537;45.594;9.294;2023-05-20T02:25:59;99702.66;;;14.95;100.00
18819;BME280;9537;45.594;9.294;2023-05-20T02:27:00;99704.69;;;14.93;100.00
18819;BME280;9537;45.594;9.294;2023-05-20T02:28:03;99707.34;;;14.93;100.00
18819;BME280;9537;45.594;9.294;2023-05-20T02:29:05;99702.03;;;14.93;100.00
18819;BME280;9537;45.594;9.294;2023-05-20T02:30:08;99698.56;;;14.92;100.00
18819;BME280;9537;45.594;9.294;2023-05-20T02:31:10;99695.72;;;14.94;100.00
18819;BME280;9537;45.594;9.294;2023-05-20T02:32:11;99699.19;;;14.94;100.00
18819;BME280;9537;45.594;9.294;2023-05-20T02:33:13;99692.22;;;14.93;100.00
18819;BME280;9537;45.594;9.294;2023-05-20T02:34:16;99696.94;;;14.91;100.00
18819;BME280;9537;45.594;9.294;2023-05-20T02:35:17;99697.53;;;14.93;100.00
18819;BME280;9537;45.594;9.294;2023-05-20T02:36:19;99695.91;;;14.92;100.00
18819;BME280;9537;45.594;9.294;2023-05-20T02:37:21;99694.06;;;14.93;100.00
18819;BME280;9537;45.594;9.294;2023-05-20T02:38:22;99688.75;;;14.93;100.00
18819;BME280;9537;45.594;9.294;2023-05-20T02:39:23;99696.72;;;14.93;100.00
18819;BME280;9537;45.594;9.294;2023-05-20T02:40:27;99693.25;;;14.92;100.00
18819;BME280;9537;45.594;9.294;2023-05-20T02:41:28;99694.28;;;14.91;100.00
18819;BME280;9537;45.594;9.294;2023-05-20T02:42:30;99694.06;;;14.93;100.00
18819;BME280;9537;45.594;9.294;2023-05-20T02:43:32;99698.38;;;14.94;100.00
18819;BME280;9537;45.594;9.294;2023-05-20T02:44:35;99700.19;;;14.93;100.00
18819;BME280;9537;45.594;9.294;2023-05-20T02:45:36;99693.06;;;14.94;100.00
18819;BME280;9537;45.594;9.294;2023-05-20T02:46:39;99694.06;;;14.93;100.00
18819;BME280;9537;45.594;9.294;2023-05-20T02:47:40;99694.47;;;14.90;100.00
18819;BME280;9537;45.594;9.294;2023-05-20T02:48:42;99696.94;;;14.91;100.00
18819;BME280;9537;45.594;9.294;2023-05-20T02:49:43;99691.63;;;14.91;100.00
18819;BME280;9537;45.594;9.294;2023-05-20T02:50:46;99694.47;;;14.90;100.00
18819;BME280;9537;45.594;9.294;2023-05-20T02:51:47;99687.31;;;14.90;100.00
18819;BME280;9537;45.594;9.294;2023-05-20T02:52:49;99683.00;;;14.89;100.00
18819;BME280;9537;45.594;9.294;2023-05-20T02:53:50;99686.47;;;14.90;100.00
18819;BME280;9537;45.594;9.294;2023-05-20T02:54:52;99685.28;;;14.92;99.95
18819;BME280;9537;45.594;9.294;2023-05-20T02:55:56;99681.78;;;14.92;99.98
18819;BME280;9537;45.594;9.294;2023-05-20T02:56:59;99681.38;;;14.88;99.94
18819;BME280;9537;45.594;9.294;2023-05-20T02:58:00;99685.66;;;14.89;100.00
18819;BME280;9537;45.594;9.294;2023-05-20T02:59:02;99678.09;;;14.86;100.00
18819;BME280;9537;45.594;9.294;2023-05-20T03:00:06;99676.84;;;14.82;100.00
18819;BME280;9537;45.594;9.294;2023-05-20T03:01:10;99681.34;;;14.81;100.00
18819;BME280;9537;45.594;9.294;2023-05-20T03:02:11;99680.34;;;14.82;100.00
18819;BME280;9537;45.594;9.294;2023-05-20T03:03:13;99680.34;;;14.82;100.00
18819;BME280;9537;45.594;9.294;2023-05-20T03:04:14;99685.44;;;14.84;100.00
18819;BME280;9537;45.594;9.294;2023-05-20T03:05:18;99678.50;;;14.83;100.00
18819;BME280;9537;45.594;9.294;2023-05-20T03:06:19;99675.63;;;14.84;100.00
18819;BME280;9537;45.594;9.294;2023-05-20T03:07:21;99669.31;;;14.85;100.00
18819;BME280;9537;45.594;9.294;2023-05-20T03:08:23;99677.28;;;14.85;100.00
18819;BME280;9537;45.594;9.294;2023-05-20T03:09:25;99672.97;;;14.84;100.00
18819;BME280;9537;45.594;9.294;2023-05-20T03:10:26;99673.19;;;14.83;100.00
18819;BME280;9537;45.594;9.294;2023-05-20T03:11:29;99671.75;;;14.80;100.00
18819;BME280;9537;45.594;9.294;2023-05-20T03:12:30;99666.41;;;14.80;100.00
18819;BME280;9537;45.594;9.294;2023-05-20T03:13:32;99665.59;;;14.80;100.00
18819;BME280;9537;45.594;9.294;2023-05-20T03:14:34;99673.38;;;14.81;100.00
18819;BME280;9537;45.594;9.294;2023-05-20T03:15:36;99665.38;;;14.81;100.00
18819;BME280;9537;45.594;9.294;2023-05-20T03:16:39;99672.38;;;14.82;100.00
18819;BME280;9537;45.594;9.294;2023-05-20T03:17:41;99674.00;;;14.83;100.00
18819;BME280;9537;45.594;9.294;2023-05-20T03:18:42;99664.38;;;14.82;100.00
18819;BME280;9537;45.594;9.294;2023-05-20T03:19:45;99668.03;;;14.81;100.00
18819;BME280;9537;45.594;9.294;2023-05-20T03:20:46;99666.41;;;14.80;100.00
18819;BME280;9537;45.594;9.294;2023-05-20T03:21:48;99668.03;;;14.81;100.00
18819;BME280;9537;45.594;9.294;2023-05-20T03:22:50;99668.03;;;14.81;100.00
18819;BME280;9537;45.594;9.294;2023-05-20T03:23:52;99661.72;;;14.82;100.00
18819;BME280;9537;45.594;9.294;2023-05-20T03:24:54;99664.16;;;14.84;100.00
18819;BME280;9537;45.594;9.294;2023-05-20T03:25:56;99669.50;;;14.84;100.00
18819;BME280;9537;45.594;9.294;2023-05-20T03:26:59;99663.34;;;14.83;100.00
18819;BME280;9537;45.594;9.294;2023-05-20T03:28:01;99666.00;;;14.83;99.83
18819;BME280;9537;45.594;9.294;2023-05-20T03:29:04;99663.34;;;14.83;99.68
18819;BME280;9537;45.594;9.294;2023-05-20T03:30:07;99662.72;;;14.81;99.89
18819;BME280;9537;45.594;9.294;2023-05-20T03:31:09;99656.81;;;14.79;100.00
18819;BME280;9537;45.594;9.294;2023-05-20T03:32:11;99664.78;;;14.79;100.00
18819;BME280;9537;45.594;9.294;2023-05-20T03:33:12;99653.13;;;14.80;100.00
18819;BME280;9537;45.594;9.294;2023-05-20T03:34:15;99653.94;;;14.81;100.00
18819;BME280;9537;45.594;9.294;2023-05-20T03:35:16;99657.22;;;14.83;100.00
18819;BME280;9537;45.594;9.294;2023-05-20T03:36:19;99660.06;;;14.81;100.00
18819;BME280;9537;45.594;9.294;2023-05-20T03:37:21;99662.72;;;14.81;99.85
18819;BME280;9537;45.594;9.294;2023-05-20T03:38:22;99654.56;;;14.83;99.74
18819;BME280;9537;45.594;9.294;2023-05-20T03:39:24;99657.41;;;14.81;99.61
18819;BME280;9537;45.594;9.294;2023-05-20T03:40:25;99652.09;;;14.81;99.58
18819;BME280;9537;45.594;9.294;2023-05-20T03:41:27;99652.91;;;14.82;99.54
18819;BME280;9537;45.594;9.294;2023-05-20T03:42:29;99658.84;;;14.77;100.00
18819;BME280;9537;45.594;9.294;2023-05-20T03:43:31;99649.84;;;14.78;100.00
18819;BME280;9537;45.594;9.294;2023-05-20T03:44:32;99645.34;;;14.79;100.00
18819;BME280;9537;45.594;9.294;2023-05-20T03:45:34;99642.88;;;14.77;100.00
18819;BME280;9537;45.594;9.294;2023-05-20T03:46:36;99650.88;;;14.77;100.00
18819;BME280;9537;45.594;9.294;2023-05-20T03:47:38;99644.53;;;14.78;100.00
18819;BME280;9537;45.594;9.294;2023-05-20T03:48:39;99648.00;;;14.79;100.00
18819;BME280;9537;45.594;9.294;2023-05-20T03:49:41;99646.38;;;14.78;100.00
18819;BME280;9537;45.594;9.294;2023-05-20T03:50:42;99652.50;;;14.78;100.00
18819;BME280;9537;45.594;9.294;2023-05-20T03:51:44;99648.00;;;14.79;100.00
18819;BME280;9537;45.594;9.294;2023-05-20T03:52:45;99647.41;;;14.77;100.00
18819;BME280;9537;45.594;9.294;2023-05-20T03:53:47;99647.41;;;14.77;100.00
18819;BME280;9537;45.594;9.294;2023-05-20T03:54:48;99648.41;;;14.76;100.00
18819;BME280;9537;45.594;9.294;2023-05-20T03:55:50;99647.78;;;14.74;100.00
18819;BME280;9537;45.594;9.294;2023-05-20T03:56:51;99649.22;;;14.76;100.00
18819;BME280;9537;45.594;9.294;2023-05-20T03:57:55;99641.84;;;14.78;100.00
18819;BME280;9537;45.594;9.294;2023-05-20T03:58:56;99649.03;;;14.78;100.00
18819;BME280;9537;45.594;9.294;2023-05-20T03:59:58;99646.38;;;14.78;100.00
18819;BME280;9537;45.594;9.294;2023-05-20T04:01:02;99648.22;;;14.77;100.00
18819;BME280;9537;45.594;9.294;2023-05-20T04:02:04;99646.56;;;14.76;100.00
18819;BME280;9537;45.594;9.294;2023-05-20T04:03:05;99649.84;;;14.78;100.00
18819;BME280;9537;45.594;9.294;2023-05-20T04:04:08;99655.97;;;14.79;100.00
18819;BME280;9537;45.594;9.294;2023-05-20T04:05:10;99649.03;;;14.78;100.00
18819;BME280;9537;45.594;9.294;2023-05-20T04:06:13;99645.56;;;14.77;100.00
18819;BME280;9537;45.594;9.294;2023-05-20T04:07:14;99648.22;;;14.77;100.00
18819;BME280;9537;45.594;9.294;2023-05-20T04:08:16;99647.19;;;14.78;100.00
18819;BME280;9537;45.594;9.294;2023-05-20T04:09:18;99644.34;;;14.80;100.00
18819;BME280;9537;45.594;9.294;2023-05-20T04:10:21;99643.53;;;14.79;100.00
18819;BME280;9537;45.594;9.294;2023-05-20T04:11:22;99641.69;;;14.80;100.00
18819;BME280;9537;45.594;9.294;2023-05-20T04:12:24;99645.56;;;14.77;100.00
18819;BME280;9537;45.594;9.294;2023-05-20T04:13:31;99646.38;;;14.78;100.00
18819;BME280;9537;45.594;9.294;2023-05-20T04:14:34;99636.94;;;14.75;100.00
18819;BME280;9537;45.594;9.294;2023-05-20T04:15:35;99639.41;;;14.77;100.00
18819;BME280;9537;45.594;9.294;2023-05-20T04:16:38;99640.41;;;14.76;100.00
18819;BME280;9537;45.594;9.294;2023-05-20T04:17:39;99645.75;;;14.76;100.00
18819;BME280;9537;45.594;9.294;2023-05-20T04:18:42;99637.75;;;14.76;100.00
18819;BME280;9537;45.594;9.294;2023-05-20T04:19:45;99643.88;;;14.70;100.00
18819;BME280;9537;45.594;9.294;2023-05-20T04:20:48;99637.34;;;14.72;100.00
18819;BME280;9537;45.594;9.294;2023-05-20T04:21:49;99633.66;;;14.73;100.00
18819;BME280;9537;45.594;9.294;2023-05-20T04:22:51;99641.44;;;14.75;100.00
18819;BME280;9537;45.594;9.294;2023-05-20T04:23:53;99637.75;;;14.76;100.00
18819;BME280;9537;45.594;9.294;2023-05-20T04:24:55;99646.56;;;14.76;100.00
18819;BME280;9537;45.594;9.294;2023-05-20T04:25:56;99633.25;;;14.76;100.00
18819;BME280;9537;45.594;9.294;2023-05-20T04:27:02;99641.22;;;14.76;100.00
18819;BME280;9537;45.594;9.294;2023-05-20T04:28:03;99640.41;;;14.76;100.00
18819;BME280;9537;45.594;9.294;2023-05-20T04:29:07;99642.88;;;14.77;100.00
18819;BME280;9537;45.594;9.294;2023-05-20T04:30:08;99642.06;;;14.77;100.00
18819;BME280;9537;45.594;9.294;2023-05-20T04:31:10;99639.41;;;14.77;100.00
18819;BME280;9537;45.594;9.294;2023-05-20T04:32:12;99641.22;;;14.76;100.00
18819;BME280;9537;45.594;9.294;2023-05-20T04:33:14;99641.22;;;14.76;100.00
18819;BME280;9537;45.594;9.294;2023-05-20T04:34:15;99637.16;;;14.74;100.00
18819;BME280;9537;45.594;9.294;2023-05-20T04:35:26;99636.53;;;14.72;100.00
18819;BME280;9537;45.594;9.294;2023-05-20T04:36:27;99638.97;;;14.73;100.00
18819;BME280;9537;45.594;9.294;2023-05-20T04:37:29;99635.50;;;14.73;100.00
18819;BME280;9537;45.594;9.294;2023-05-20T04:38:31;99642.03;;;14.70;100.00
18819;BME280;9537;45.594;9.294;2023-05-20T04:39:33;99637.34;;;14.72;100.00
18819;BME280;9537;45.594;9.294;2023-05-20T04:40:34;99630.00;;;14.74;100.00
18819;BME280;9537;45.594;9.294;2023-05-20T04:41:36;99633.47;;;14.75;100.00
18819;BME280;9537;45.594;9.294;2023-05-20T04:42:37;99638.16;;;14.73;100.00
18819;BME280;9537;45.594;9.294;2023-05-20T04:43:39;99627.53;;;14.73;100.00
18819;BME280;9537;45.594;9.294;2023-05-20T04:44:42;99625.69;;;14.73;100.00
18819;BME280;9537;45.594;9.294;2023-05-20T04:45:45;99628.34;;;14.73;100.00
18819;BME280;9537;45.594;9.294;2023-05-20T04:46:47;99624.69;;;14.74;100.00
18819;BME280;9537;45.594;9.294;2023-05-20T04:47:49;99631.00;;;14.73;100.00
18819;BME280;9537;45.594;9.294;2023-05-20T04:48:52;99619.38;;;14.74;100.00
18819;BME280;9537;45.594;9.294;2023-05-20T04:49:55;99616.50;;;14.76;100.00
18819;BME280;9537;45.594;9.294;2023-05-20T04:50:57;99609.16;;;14.78;100.00
18819;BME280;9537;45.594;9.294;2023-05-20T04:51:59;99608.31;;;14.77;100.00
18819;BME280;9537;45.594;9.294;2023-05-20T04:53:00;99608.31;;;14.77;100.00
18819;BME280;9537;45.594;9.294;2023-05-20T04:54:02;99603.81;;;14.78;100.00
18819;BME280;9537;45.594;9.294;2023-05-20T04:55:05;99600.97;;;14.79;100.00
18819;BME280;9537;45.594;9.294;2023-05-20T04:56:07;99597.88;;;14.76;100.00
18819;BME280;9537;45.594;9.294;2023-05-20T04:57:08;99598.50;;;14.78;100.00
18819;BME280;9537;45.594;9.294;2023-05-20T04:58:10;99599.31;;;14.78;100.00
18819;BME280;9537;45.594;9.294;2023-05-20T04:59:14;99616.09;;;14.79;100.00
18819;BME280;9537;45.594;9.294;2023-05-20T05:00:18;99608.97;;;14.79;100.00
18819;BME280;9537;45.594;9.294;2023-05-20T05:01:19;99607.13;;;14.80;100.00
18819;BME280;9537;45.594;9.294;2023-05-20T05:02:21;99601.97;;;14.78;100.00
18819;BME280;9537;45.594;9.294;2023-05-20T05:03:22;99612.44;;;14.80;100.00
18819;BME280;9537;45.594;9.294;2023-05-20T05:04:24;99612.22;;;14.81;100.00
18819;BME280;9537;45.594;9.294;2023-05-20T05:05:26;99595.44;;;14.81;100.00
18819;BME280;9537;45.594;9.294;2023-05-20T05:06:28;99609.56;;;14.81;100.00
18819;BME280;9537;45.594;9.294;2023-05-20T05:07:29;99605.25;;;14.80;100.00
18819;BME280;9537;45.594;9.294;2023-05-20T05:08:31;99602.59;;;14.80;100.00
18819;BME280;9537;45.594;9.294;2023-05-20T05:09:32;99596.66;;;14.78;100.00
18819;BME280;9537;45.594;9.294;2023-05-20T05:10:35;99608.31;;;14.77;100.00
18819;BME280;9537;45.594;9.294;2023-05-20T05:11:36;99608.97;;;14.79;100.00
18819;BME280;9537;45.594;9.294;2023-05-20T05:12:38;99601.78;;;14.80;100.00
18819;BME280;9537;45.594;9.294;2023-05-20T05:13:40;99605.25;;;14.80;100.00
18819;BME280;9537;45.594;9.294;2023-05-20T05:14:42;99605.25;;;14.80;100.00
18819;BME280;9537;45.594;9.294;2023-05-20T05:15:44;99603.63;;;14.79;100.00
18819;BME280;9537;45.594;9.294;2023-05-20T05:16:47;99600.13;;;14.79;100.00
18819;BME280;9537;45.594;9.294;2023-05-20T05:17:48;99598.31;;;14.79;100.00
18819;BME280;9537;45.594;9.294;2023-05-20T05:18:50;99602.59;;;14.80;100.00
18819;BME280;9537;45.594;9.294;2023-05-20T05:19:51;99604.22;;;14.81;100.00
18819;BME280;9537;45.594;9.294;2023-05-20T05:21:00;99605.91;;;14.82;100.00
18819;BME280;9537;45.594;9.294;2023-05-20T05:22:01;99595.25;;;14.82;100.00
18819;BME280;9537;45.594;9.294;2023-05-20T05:23:03;99596.06;;;14.83;100.00
18819;BME280;9537;45.594;9.294;2023-05-20T05:24:05;99600.56;;;14.82;100.00
18819;BME280;9537;45.594;9.294;2023-05-20T05:25:08;99595.25;;;14.82;100.00
18819;BME280;9537;45.594;9.294;2023-05-20T05:26:09;99597.91;;;14.82;100.00
18819;BME280;9537;45.594;9.294;2023-05-20T05:27:11;99588.28;;;14.81;100.00
18819;BME280;9537;45.594;9.294;2023-05-20T05:28:12;99593.59;;;14.81;100.00
18819;BME280;9537;45.594;9.294;2023-05-20T05:29:14;99590.75;;;14.83;100.00
18819;BME280;9537;45.594;9.294;2023-05-20T05:30:16;99597.91;;;14.82;100.00